< Cyclone 198217 1983 Season Cyclone 198302 >
Cyclone 198301 (JANE)
General InformationDetailed Track InformationTrack Information on Google MapsList of All Images || ResourceGoogle EarthGE AnimationAtom FeedGeoJSON
Detalied Best Track Wind (Time Zone = UTC)
Year Month Day Hour Lat. Long. Wind (kt) Gust (kt) Direc. of Major Storm Axis Radius of Major Storm Axis (nm) Radius of Minor Storm Axis (nm) Direc. of Major Gale Axis Radius of Major Gale Axis (nm) Radius of Minor Gale Axis (nm) Image
1983 1 2 00 -10.7 111.5 20 -1 symmetric - - symmetric - - Image
1983 1 2 06 -11.3 112.6 25 -1 symmetric - - symmetric - - Image
1983 1 2 12 -11.9 114.1 25 -1 symmetric - - symmetric - - Image
1983 1 2 18 -12.4 114.9 25 -1 symmetric - - symmetric - - Image
1983 1 3 00 -13.1 115.0 30 -1 symmetric - - symmetric - - Image
1983 1 3 06 -13.3 115.1 30 -1 symmetric - - symmetric - - Image
1983 1 3 12 -13.6 115.1 30 -1 symmetric - - symmetric - - Image
1983 1 3 18 -14.0 115.2 40 -1 symmetric - - symmetric - - Image
1983 1 4 00 -14.4 115.4 50 -1 symmetric - - symmetric - - Image
1983 1 4 06 -14.7 115.4 50 -1 symmetric - - symmetric - - Image
1983 1 4 12 -14.9 115.1 55 -1 symmetric - - symmetric - - Image
1983 1 4 18 -14.7 114.9 55 -1 symmetric - - symmetric - - Image
1983 1 5 00 -14.4 115.0 55 -1 symmetric - - symmetric - - Image
1983 1 5 06 -14.3 115.5 55 -1 symmetric - - symmetric - - Image
1983 1 5 12 -13.9 116.0 55 -1 symmetric - - symmetric - - Image
1983 1 5 18 -13.6 116.9 55 -1 symmetric - - symmetric - - Image
1983 1 6 00 -13.4 117.7 50 -1 symmetric - - symmetric - - Image
1983 1 6 06 -13.6 118.7 50 -1 symmetric - - symmetric - - Image
1983 1 6 12 -14.6 118.9 50 -1 symmetric - - symmetric - - Image
1983 1 6 18 -14.9 119.0 50 -1 symmetric - - symmetric - - Image
1983 1 7 00 -15.2 118.9 55 -1 symmetric - - symmetric - - Image
1983 1 7 06 -16.1 118.5 55 -1 symmetric - - symmetric - - Image
1983 1 7 12 -16.7 118.1 60 -1 symmetric - - symmetric - - Image
1983 1 7 18 -17.1 118.2 65 -1 symmetric - - symmetric - - Image
1983 1 8 00 -17.2 118.2 70 -1 symmetric - - symmetric - - Image
1983 1 8 03 -17.4 118.3 75 -1 symmetric - - symmetric - - Image
1983 1 8 06 -17.6 118.4 80 -1 symmetric - - symmetric - - Image
1983 1 8 09 -17.8 118.5 80 -1 symmetric - - symmetric - - Image
1983 1 8 12 -17.9 118.6 80 -1 symmetric - - symmetric - - Image
1983 1 8 15 -18.0 118.5 80 -1 symmetric - - symmetric - - Image
1983 1 8 18 -18.3 118.5 80 -1 symmetric - - symmetric - - Image
1983 1 8 21 -18.6 118.6 85 -1 symmetric - - symmetric - - Image
1983 1 9 00 -18.9 119.0 90 -1 symmetric - - symmetric - - Image
1983 1 9 03 -19.3 119.2 90 -1 symmetric - - symmetric - - Image
1983 1 9 06 -19.8 119.6 90 -1 symmetric - - symmetric - - Image
1983 1 9 09 -20.0 119.8 80 -1 symmetric - - symmetric - - Image
1983 1 9 12 -20.3 120.1 70 -1 symmetric - - symmetric - - Image
1983 1 9 15 -20.6 120.6 60 -1 symmetric - - symmetric - - Image
1983 1 9 18 -21.1 121.1 50 -1 symmetric - - symmetric - - Image
1983 1 9 21 -21.6 121.7 40 -1 symmetric - - symmetric - - Image
1983 1 10 00 -22.2 122.5 40 -1 symmetric - - symmetric - - Image
1983 1 10 03 -22.7 123.1 35 -1 symmetric - - symmetric - - Image
1983 1 10 06 -23.1 123.6 35 -1 symmetric - - symmetric - - Image
1983 1 10 09 -23.5 124.3 30 -1 symmetric - - symmetric - - Image
1983 1 10 12 -23.9 125.5 30 -1 symmetric - - symmetric - - Image
1983 1 10 15 -23.6 127.5 25 -1 symmetric - - symmetric - - Image
1983 1 10 18 -23.4 129.0 25 -1 symmetric - - symmetric - - Image
< Cyclone 198217 1983 Season Cyclone 198302 >

Help